sensor_id;sensor_type;location;lat;lon;timestamp;pressure;altitude;pressure_sealevel;temperature;humidity
26915;BME280;14480;52.608;13.416;2023-06-26T14:38:10;145521.56;;;6.26;100.00
26915;BME280;14480;52.608;13.416;2023-06-26T14:43:13;145465.28;;;6.03;100.00
26915;BME280;14480;52.608;13.416;2023-06-26T14:48:17;145495.31;;;6.16;100.00
26915;BME280;14480;52.608;13.416;2023-06-26T14:53:23;145649.13;;;6.78;100.00
26915;BME280;14480;52.608;13.416;2023-06-26T14:58:26;145545.28;;;6.36;100.00
26915;BME280;14480;52.608;13.416;2023-06-26T15:03:30;145470.28;;;6.05;100.00
26915;BME280;14480;52.608;13.416;2023-06-26T15:08:35;145479.03;;;6.09;100.00
26915;BME280;14480;52.608;13.416;2023-06-26T15:13:39;145096.63;;;4.53;100.00
26915;BME280;14480;52.608;13.416;2023-06-26T15:18:42;144896.88;;;3.72;100.00
26915;BME280;14480;52.608;13.416;2023-06-26T15:23:47;144946.78;;;3.92;100.00
26915;BME280;14480;52.608;13.416;2023-06-26T15:28:53;144861.91;;;3.58;100.00
26915;BME280;14480;52.608;13.416;2023-06-26T15:33:56;144818.25;;;3.40;100.00
26915;BME280;14480;52.608;13.416;2023-06-26T15:39:01;144894.41;;;3.71;100.00
26915;BME280;14480;52.608;13.416;2023-06-26T15:44:05;144990.47;;;4.10;100.00
26915;BME280;14480;52.608;13.416;2023-06-26T15:49:08;145044.19;;;4.32;100.00
26915;BME280;14480;52.608;13.416;2023-06-26T15:54:13;145065.41;;;4.41;100.00
26915;BME280;14480;52.608;13.416;2023-06-26T15:59:16;145151.59;;;4.76;100.00
26915;BME280;14480;52.608;13.416;2023-06-26T16:04:21;145169.03;;;4.83;100.00
26915;BME280;14480;52.608;13.416;2023-06-26T16:09:26;145189.03;;;4.91;100.00
26915;BME280;14480;52.608;13.416;2023-06-26T16:14:29;145195.28;;;4.93;100.00
26915;BME280;14480;52.608;13.416;2023-06-26T16:19:35;145216.53;;;5.02;100.00
26915;BME280;14480;52.608;13.416;2023-06-26T16:24:40;145300.25;;;5.36;100.00
26915;BME280;14480;52.608;13.416;2023-06-26T16:29:43;145357.72;;;5.60;100.00
26915;BME280;14480;52.608;13.416;2023-06-26T16:34:47;145302.75;;;5.37;100.00
26915;BME280;14480;52.608;13.416;2023-06-26T16:39:52;145316.47;;;5.43;100.00
26915;BME280;14480;52.608;13.416;2023-06-26T16:44:56;145304.00;;;5.38;100.00
26915;BME280;14480;52.608;13.416;2023-06-26T16:49:59;145209.03;;;4.99;100.00
26915;BME280;14480;52.608;13.416;2023-06-26T16:55:06;145135.31;;;4.69;100.00
26915;BME280;14480;52.608;13.416;2023-06-26T17:00:11;145172.78;;;4.84;100.00
26915;BME280;14480;52.608;13.416;2023-06-26T17:05:14;145166.56;;;4.82;100.00
26915;BME280;14480;52.608;13.416;2023-06-26T17:10:19;145139.06;;;4.71;100.00
26915;BME280;14480;52.608;13.416;2023-06-26T17:15:23;145171.53;;;4.84;100.00
26915;BME280;14480;52.608;13.416;2023-06-26T17:20:29;145176.53;;;4.86;100.00
26915;BME280;14480;52.608;13.416;2023-06-26T17:25:37;145225.25;;;5.06;100.00
26915;BME280;14480;52.608;13.416;2023-06-26T17:30:40;145177.81;;;4.86;100.00
26915;BME280;14480;52.608;13.416;2023-06-26T17:35:44;145161.56;;;4.80;100.00
26915;BME280;14480;52.608;13.416;2023-06-26T17:40:49;145167.78;;;4.82;100.00
26915;BME280;14480;52.608;13.416;2023-06-26T17:45:55;145009.22;;;4.18;100.00
26915;BME280;14480;52.608;13.416;2023-06-26T17:50:58;145137.81;;;4.70;100.00
26915;BME280;14480;52.608;13.416;2023-06-26T17:56:03;145106.59;;;4.57;100.00
26915;BME280;14480;52.608;13.416;2023-06-26T18:01:09;145110.34;;;4.59;100.00
26915;BME280;14480;52.608;13.416;2023-06-26T18:06:15;145104.13;;;4.56;100.00
26915;BME280;14480;52.608;13.416;2023-06-26T18:11:19;145111.59;;;4.59;100.00
26915;BME280;14480;52.608;13.416;2023-06-26T18:16:23;145072.91;;;4.44;100.00
26915;BME280;14480;52.608;13.416;2023-06-26T18:21:26;145024.19;;;4.24;100.00
26915;BME280;14480;52.608;13.416;2023-06-26T18:26:33;145062.88;;;4.39;100.00
26915;BME280;14480;52.608;13.416;2023-06-26T18:31:37;145046.66;;;4.33;100.00
26915;BME280;14480;52.608;13.416;2023-06-26T18:36:40;144999.22;;;4.14;100.00
26915;BME280;14480;52.608;13.416;2023-06-26T18:41:45;144976.72;;;4.04;100.00
26915;BME280;14480;52.608;13.416;2023-06-26T18:46:48;144991.72;;;4.10;100.00
26915;BME280;14480;52.608;13.416;2023-06-26T18:51:52;144945.53;;;3.92;100.00
26915;BME280;14480;52.608;13.416;2023-06-26T18:57:02;144913.09;;;3.78;100.00
26915;BME280;14480;52.608;13.416;2023-06-26T19:02:05;144926.84;;;3.84;100.00
26915;BME280;14480;52.608;13.416;2023-06-26T19:07:09;144894.41;;;3.71;100.00
26915;BME280;14480;52.608;13.416;2023-06-26T19:12:16;144879.41;;;3.65;100.00
26915;BME280;14480;52.608;13.416;2023-06-26T19:17:20;144844.47;;;3.50;100.00
26915;BME280;14480;52.608;13.416;2023-06-26T19:22:24;144814.53;;;3.38;100.00
26915;BME280;14480;52.608;13.416;2023-06-26T19:27:30;144787.09;;;3.27;100.00
26915;BME280;14480;52.608;13.416;2023-06-26T19:32:37;144748.38;;;3.11;100.00
26915;BME280;14480;52.608;13.416;2023-06-26T19:37:41;144738.41;;;3.07;100.00
26915;BME280;14480;52.608;13.416;2023-06-26T19:43:06;144714.72;;;2.98;100.00
26915;BME280;14480;52.608;13.416;2023-06-26T19:48:09;144693.50;;;2.89;100.00
26915;BME280;14480;52.608;13.416;2023-06-26T19:53:15;144668.59;;;2.79;100.00
26915;BME280;14480;52.608;13.416;2023-06-26T19:58:20;144642.41;;;2.68;100.00
26915;BME280;14480;52.608;13.416;2023-06-26T20:03:25;144604.97;;;2.53;100.00
26915;BME280;14480;52.608;13.416;2023-06-26T20:08:33;144583.81;;;2.44;100.00
26915;BME280;14480;52.608;13.416;2023-06-26T20:13:40;144518.94;;;2.18;100.00
26915;BME280;14480;52.608;13.416;2023-06-26T20:18:43;144495.25;;;2.08;100.00
26915;BME280;14480;52.608;13.416;2023-06-26T20:23:47;144469.13;;;1.97;100.00
26915;BME280;14480;52.608;13.416;2023-06-26T20:28:52;144454.16;;;1.91;100.00
26915;BME280;14480;52.608;13.416;2023-06-26T20:33:56;144428.00;;;1.81;100.00
26915;BME280;14480;52.608;13.416;2023-06-26T20:38:59;144383.16;;;1.62;100.00
26915;BME280;14480;52.608;13.416;2023-06-26T20:44:04;144368.19;;;1.56;100.00
26915;BME280;14480;52.608;13.416;2023-06-26T20:49:08;144337.06;;;1.43;100.00
26915;BME280;14480;52.608;13.416;2023-06-26T20:54:12;144342.03;;;1.45;100.00
26915;BME280;14480;52.608;13.416;2023-06-26T20:59:19;144333.31;;;1.42;100.00
26915;BME280;14480;52.608;13.416;2023-06-26T21:04:23;144322.09;;;1.37;100.00
26915;BME280;14480;52.608;13.416;2023-06-26T21:09:26;144312.13;;;1.33;100.00
26915;BME280;14480;52.608;13.416;2023-06-26T21:14:32;144284.72;;;1.22;100.00
26915;BME280;14480;52.608;13.416;2023-06-26T21:19:35;144262.31;;;1.13;100.00
26915;BME280;14480;52.608;13.416;2023-06-26T21:24:39;144256.09;;;1.10;100.00
26915;BME280;14480;52.608;13.416;2023-06-26T21:29:44;144237.41;;;1.03;100.00
26915;BME280;14480;52.608;13.416;2023-06-26T21:34:47;144238.63;;;1.03;100.00
26915;BME280;14480;52.608;13.416;2023-06-26T21:39:51;144243.66;;;1.05;100.00
26915;BME280;14480;52.608;13.416;2023-06-26T21:44:55;144215.03;;;0.94;100.00
26915;BME280;14480;52.608;13.416;2023-06-26T21:49:59;144223.72;;;0.97;100.00
26915;BME280;14480;52.608;13.416;2023-06-26T21:55:03;144227.44;;;0.99;100.00
26915;BME280;14480;52.608;13.416;2023-06-26T22:00:08;144252.38;;;1.09;100.00
26915;BME280;14480;52.608;13.416;2023-06-26T22:05:14;144251.13;;;1.08;100.00
26915;BME280;14480;52.608;13.416;2023-06-26T22:10:18;144227.44;;;0.99;100.00
26915;BME280;14480;52.608;13.416;2023-06-26T22:15:23;144208.75;;;0.91;100.00
26915;BME280;14480;52.608;13.416;2023-06-26T22:20:26;144216.25;;;0.94;100.00
26915;BME280;14480;52.608;13.416;2023-06-26T22:25:30;144252.38;;;1.09;100.00
